createdAt,value
2024-01-20T00:00:16.080Z,29.02
2024-01-20T00:02:58.928Z,31.00
2024-01-20T00:05:29.525Z,31.45
2024-01-20T00:08:16.977Z,29.40
2024-01-20T00:10:47.026Z,30.40
2024-01-20T00:13:14.400Z,29.20
2024-01-20T00:15:41.019Z,29.55
2024-01-20T00:18:08.463Z,31.33
2024-01-20T00:20:35.818Z,30.13
2024-01-20T00:23:07.023Z,32.38
2024-01-20T00:25:36.094Z,29.92
2024-01-20T00:28:05.252Z,32.92
2024-01-20T00:30:31.920Z,31.27
2024-01-20T00:32:59.435Z,30.65
2024-01-20T00:35:26.097Z,32.55
2024-01-20T00:37:52.826Z,32.67
2024-01-20T00:40:19.503Z,31.25
2024-01-20T00:42:46.091Z,30.10
2024-01-20T00:45:12.898Z,31.30
2024-01-20T00:47:40.404Z,30.80
2024-01-20T00:50:08.289Z,32.50
2024-01-20T00:52:35.523Z,30.85
2024-01-20T00:55:02.114Z,31.70
2024-01-20T00:57:28.928Z,29.70
2024-01-20T00:59:56.681Z,30.55
2024-01-20T01:02:25.871Z,30.73
2024-01-20T01:04:52.776Z,31.88
2024-01-20T01:07:19.470Z,30.67
2024-01-20T01:09:46.064Z,29.50
2024-01-20T01:12:13.153Z,29.05
2024-01-20T01:14:40.010Z,30.92
2024-01-20T01:17:07.378Z,31.55
2024-01-20T01:19:34.557Z,30.70
2024-01-20T01:22:01.220Z,30.63
2024-01-20T01:24:27.816Z,30.75
2024-01-20T01:26:54.456Z,30.50
2024-01-20T01:29:21.189Z,30.58
2024-01-20T01:31:48.004Z,29.15
2024-01-20T01:34:14.950Z,29.10
2024-01-20T01:36:41.894Z,29.13
2024-01-20T01:39:08.474Z,30.27
2024-01-20T01:41:35.358Z,30.60
2024-01-20T01:44:04.162Z,29.58
2024-01-20T01:46:31.504Z,29.50
2024-01-20T01:48:58.631Z,28.63
2024-01-20T01:51:25.338Z,29.52
2024-01-20T01:53:52.757Z,29.52
2024-01-20T01:56:21.191Z,31.65
2024-01-20T01:58:48.112Z,27.70
2024-01-20T02:01:15.256Z,30.92
2024-01-20T02:03:42.087Z,29.95
2024-01-20T02:06:08.966Z,28.50
2024-01-20T02:08:36.896Z,29.55
2024-01-20T02:11:03.920Z,26.95
2024-01-20T02:13:31.312Z,28.38
2024-01-20T02:15:58.506Z,28.45
2024-01-20T02:18:25.349Z,27.23
2024-01-20T02:20:52.058Z,28.80
2024-01-20T02:23:18.809Z,28.58
2024-01-20T02:25:48.890Z,28.42
2024-01-20T02:28:18.425Z,27.63
2024-01-20T02:30:52.680Z,26.30
2024-01-20T02:33:27.312Z,27.45
2024-01-20T02:36:09.840Z,26.98
2024-01-20T02:38:46.644Z,26.95
2024-01-20T02:41:22.563Z,26.33
2024-01-20T02:44:03.546Z,26.00
2024-01-20T02:46:40.254Z,28.20
2024-01-20T02:49:21.638Z,28.13
2024-01-20T02:51:54.018Z,26.83
2024-01-20T02:54:25.274Z,25.70
2024-01-20T02:56:57.785Z,26.55
2024-01-20T03:02:48.824Z,24.08
2024-01-20T03:05:15.526Z,24.55
2024-01-20T03:07:42.164Z,26.77
2024-01-20T03:10:09.230Z,26.48
2024-01-20T03:12:36.079Z,25.92
2024-01-20T03:15:03.046Z,26.00
2024-01-20T03:17:30.405Z,25.13
2024-01-20T03:19:57.293Z,25.02
2024-01-20T03:22:23.960Z,24.08
2024-01-20T03:24:50.621Z,26.27
2024-01-20T03:27:20.282Z,23.98
2024-01-20T03:29:46.992Z,25.42
2024-01-20T03:32:13.813Z,24.80
2024-01-20T03:34:40.582Z,23.77
2024-01-20T03:37:07.404Z,24.42
2024-01-20T03:39:34.078Z,24.88
2024-01-20T03:42:03.142Z,24.60
2024-01-20T03:44:30.391Z,22.77
2024-01-20T03:46:57.016Z,23.45
2024-01-20T03:49:23.710Z,24.05
2024-01-20T03:51:50.757Z,25.50
2024-01-20T03:54:17.454Z,25.08
2024-01-20T03:56:47.051Z,22.98
2024-01-20T03:59:13.770Z,23.67
2024-01-20T04:01:40.721Z,23.17
2024-01-20T04:04:07.652Z,24.58
2024-01-20T04:06:34.933Z,22.95
2024-01-20T04:09:01.604Z,24.60
2024-01-20T04:11:28.271Z,23.65
2024-01-20T04:13:54.882Z,24.42
2024-01-20T04:16:21.715Z,25.50
2024-01-20T04:18:48.532Z,24.52
2024-01-20T04:21:15.318Z,22.45
2024-01-20T04:23:41.955Z,22.80
2024-01-20T04:26:08.703Z,23.73
2024-01-20T04:28:35.334Z,24.25
2024-01-20T04:31:02.023Z,25.10
2024-01-20T04:33:28.716Z,26.10
2024-01-20T04:35:55.418Z,24.00
2024-01-20T04:38:22.033Z,23.23
2024-01-20T04:40:48.989Z,23.90
2024-01-20T04:43:15.722Z,24.17
2024-01-20T04:45:42.593Z,24.70
2024-01-20T04:48:09.595Z,23.95
2024-01-20T04:50:36.559Z,24.23
2024-01-20T04:53:03.952Z,23.15
2024-01-20T04:55:30.580Z,23.83
2024-01-20T04:57:57.297Z,25.48
2024-01-20T05:00:24.760Z,22.95
2024-01-20T05:02:51.666Z,23.02
2024-01-20T05:05:18.352Z,24.05
2024-01-20T05:07:46.121Z,24.75
2024-01-20T05:10:12.794Z,24.48
2024-01-20T05:12:39.527Z,24.60
2024-01-20T05:15:12.024Z,24.08
2024-01-20T05:17:38.911Z,23.48
2024-01-20T05:20:06.767Z,23.98
2024-01-20T05:22:33.827Z,23.35
2024-01-20T05:25:00.836Z,24.15
2024-01-20T05:27:27.751Z,22.55
2024-01-20T05:29:54.445Z,22.90
2024-01-20T05:32:21.454Z,23.65
2024-01-20T05:34:48.191Z,23.08
2024-01-20T05:37:15.047Z,22.90
2024-01-20T05:39:41.655Z,22.75
2024-01-20T05:42:08.325Z,22.75
2024-01-20T05:44:35.201Z,22.58
2024-01-20T05:47:01.821Z,21.38
2024-01-20T05:49:29.759Z,22.50
2024-01-20T05:51:56.444Z,23.27
2024-01-20T05:54:25.593Z,22.75
2024-01-20T05:56:52.303Z,22.42
2024-01-20T05:59:18.944Z,22.08
2024-01-20T06:01:51.402Z,23.58
2024-01-20T06:04:18.941Z,22.77
2024-01-20T06:06:47.586Z,22.38
2024-01-20T06:09:14.939Z,22.52
2024-01-20T06:11:42.255Z,20.77
2024-01-20T06:14:09.002Z,23.27
2024-01-20T06:16:39.785Z,21.67
2024-01-20T06:19:07.525Z,20.40
2024-01-20T06:21:35.192Z,19.98
2024-01-20T06:24:02.051Z,21.73
2024-01-20T06:26:29.973Z,20.55
2024-01-20T06:28:56.686Z,20.80
2024-01-20T06:31:29.649Z,21.70
2024-01-20T06:33:56.816Z,21.25
2024-01-20T06:36:26.413Z,20.13
2024-01-20T06:38:53.419Z,20.85
2024-01-20T06:41:20.323Z,19.67
2024-01-20T06:43:47.018Z,21.15
2024-01-20T06:46:13.722Z,20.17
2024-01-20T06:48:40.397Z,18.92
2024-01-20T06:51:07.637Z,19.20
2024-01-20T06:53:34.889Z,18.83
2024-01-20T06:56:01.618Z,19.85
2024-01-20T06:58:28.208Z,20.05
2024-01-20T07:00:54.804Z,19.77
2024-01-20T07:03:22.782Z,19.15
2024-01-20T07:05:49.646Z,20.20
2024-01-20T07:08:16.288Z,19.48
2024-01-20T07:10:42.895Z,19.52
2024-01-20T07:13:10.489Z,19.10
2024-01-20T07:15:37.187Z,19.00
2024-01-20T07:18:08.226Z,19.40
2024-01-20T07:20:35.211Z,18.80
2024-01-20T07:23:01.930Z,17.67
2024-01-20T07:25:28.617Z,18.63
2024-01-20T07:27:55.943Z,19.23
2024-01-20T07:30:22.850Z,20.92
2024-01-20T07:32:49.657Z,19.92
2024-01-20T07:35:16.378Z,18.17
2024-01-20T07:37:43.370Z,18.83
2024-01-20T07:40:11.041Z,18.83
2024-01-20T07:42:37.698Z,20.48
2024-01-20T07:45:05.150Z,19.63
2024-01-20T07:47:31.929Z,20.83
2024-01-20T07:49:58.589Z,18.85
2024-01-20T07:52:25.240Z,20.20
2024-01-20T07:54:51.876Z,19.92
2024-01-20T07:57:18.530Z,18.33
2024-01-20T07:59:45.353Z,19.83
2024-01-20T08:02:11.973Z,18.58
2024-01-20T08:04:38.692Z,20.52
2024-01-20T08:07:05.386Z,19.77
2024-01-20T08:09:32.173Z,18.38
2024-01-20T08:11:58.898Z,19.38
2024-01-20T08:14:25.487Z,19.27
2024-01-20T08:16:52.155Z,19.67
2024-01-20T08:19:18.934Z,18.48
2024-01-20T08:21:45.786Z,19.88
2024-01-20T08:24:12.805Z,18.83
2024-01-20T08:26:39.456Z,19.20
2024-01-20T08:29:07.382Z,19.67
2024-01-20T08:31:34.183Z,18.77
2024-01-20T08:34:01.394Z,20.08
2024-01-20T08:36:28.209Z,19.30
2024-01-20T08:38:54.903Z,20.00
2024-01-20T08:41:21.593Z,19.67
2024-01-20T08:43:48.618Z,20.15
2024-01-20T08:46:15.436Z,22.05
2024-01-20T08:48:42.174Z,19.38
2024-01-20T08:51:09.527Z,19.50
2024-01-20T08:53:36.413Z,20.13
2024-01-20T08:56:05.234Z,19.55
2024-01-20T08:58:31.989Z,20.88
2024-01-20T09:00:58.873Z,20.58
2024-01-20T09:03:26.521Z,20.00
2024-01-20T09:05:53.527Z,21.50
2024-01-20T09:08:20.246Z,19.95
2024-01-20T09:10:46.930Z,20.20
2024-01-20T09:13:14.136Z,20.80
2024-01-20T09:15:43.052Z,19.38
2024-01-20T09:18:10.863Z,21.27
2024-01-20T09:20:37.982Z,20.55
2024-01-20T09:23:05.322Z,20.45
2024-01-20T09:25:32.057Z,20.02
2024-01-20T09:27:58.803Z,19.50
2024-01-20T09:30:25.423Z,19.30
2024-01-20T09:32:52.070Z,18.83
2024-01-20T09:35:18.881Z,20.05
2024-01-20T09:37:46.352Z,20.10
2024-01-20T09:40:13.244Z,21.48
2024-01-20T09:42:40.441Z,20.27
2024-01-20T09:45:08.213Z,20.33
2024-01-20T09:47:36.323Z,20.08
2024-01-20T09:50:05.389Z,19.27
2024-01-20T09:52:45.436Z,19.48
2024-01-20T09:55:22.240Z,20.52
2024-01-20T09:57:51.006Z,19.55
2024-01-20T10:00:21.062Z,21.55
2024-01-20T10:02:48.022Z,21.25
2024-01-20T10:05:16.067Z,20.95
2024-01-20T10:07:44.103Z,20.27
2024-01-20T10:10:22.864Z,22.45
2024-01-20T10:12:54.852Z,20.67
2024-01-20T10:15:33.534Z,20.20
2024-01-20T10:18:07.360Z,21.08
2024-01-20T10:20:37.326Z,20.92
2024-01-20T10:23:06.587Z,20.95
2024-01-20T10:25:35.222Z,21.80
2024-01-20T10:28:02.138Z,21.67
2024-01-20T10:30:30.407Z,21.00
2024-01-20T10:33:08.727Z,20.52
2024-01-20T10:35:37.541Z,21.25
2024-01-20T10:38:10.349Z,20.42
2024-01-20T10:40:40.692Z,19.77
2024-01-20T10:43:14.960Z,22.23
2024-01-20T10:45:59.827Z,20.45
2024-01-20T10:48:28.508Z,21.43
2024-01-20T10:51:00.714Z,21.55
2024-01-20T10:53:27.950Z,20.92
2024-01-20T10:55:55.584Z,20.27
2024-01-20T10:58:38.516Z,19.88
2024-01-20T11:01:06.408Z,19.42
2024-01-20T11:03:34.177Z,18.90
2024-01-20T11:06:01.000Z,20.45
2024-01-20T11:08:27.733Z,20.83
2024-01-20T11:10:55.371Z,21.45
2024-01-20T11:13:27.313Z,20.13
2024-01-20T11:15:56.091Z,21.38
2024-01-20T11:18:24.064Z,19.52
2024-01-20T11:20:58.686Z,20.65
2024-01-20T11:23:29.201Z,19.33
2024-01-20T11:25:56.630Z,20.42
2024-01-20T11:28:25.844Z,20.27
2024-01-20T11:30:52.626Z,21.02
2024-01-20T11:33:19.657Z,20.02
2024-01-20T11:35:46.418Z,20.98
2024-01-20T11:38:16.181Z,20.73
2024-01-20T11:40:43.980Z,20.75
2024-01-20T11:43:12.967Z,20.50
2024-01-20T11:45:40.563Z,19.45
2024-01-20T11:48:10.430Z,21.38
2024-01-20T11:50:39.539Z,20.80
2024-01-20T11:53:06.244Z,20.38
2024-01-20T11:55:32.973Z,20.27
2024-01-20T11:58:00.325Z,22.05
2024-01-20T12:00:27.086Z,20.67
2024-01-20T12:02:54.048Z,19.83
2024-01-20T12:05:21.579Z,21.02
2024-01-20T12:07:48.397Z,19.98
2024-01-20T12:10:17.044Z,19.73
2024-01-20T12:12:45.060Z,20.10
2024-01-20T12:15:12.117Z,18.85
2024-01-20T12:17:38.831Z,19.65
2024-01-20T12:20:06.245Z,19.52
2024-01-20T12:22:33.407Z,19.40
2024-01-20T12:25:00.732Z,19.45
2024-01-20T12:27:27.989Z,19.45
2024-01-20T12:29:55.758Z,19.27
2024-01-20T12:32:22.539Z,19.88
2024-01-20T12:34:49.427Z,20.38
2024-01-20T12:37:16.000Z,17.80
2024-01-20T12:39:43.050Z,18.40
2024-01-20T12:42:10.432Z,18.48
2024-01-20T12:44:37.030Z,18.45
2024-01-20T12:47:04.188Z,18.70
2024-01-20T12:49:31.936Z,18.00
2024-01-20T12:51:59.121Z,16.63
2024-01-20T12:54:26.023Z,18.38
2024-01-20T12:56:52.693Z,17.52
2024-01-20T12:59:19.337Z,18.30
2024-01-20T13:01:45.968Z,17.25
2024-01-20T13:04:13.091Z,17.70
2024-01-20T13:06:39.850Z,18.55
2024-01-20T13:09:10.082Z,18.75
2024-01-20T13:11:37.695Z,18.10
2024-01-20T13:14:04.332Z,16.60
2024-01-20T13:16:34.169Z,16.55
2024-01-20T13:19:01.797Z,17.65
2024-01-20T13:21:28.678Z,16.52
2024-01-20T13:23:55.378Z,16.10
2024-01-20T13:26:22.673Z,14.95
2024-01-20T13:28:49.776Z,15.00
2024-01-20T13:31:17.694Z,15.60
2024-01-20T13:33:45.466Z,15.00
2024-01-20T13:36:12.116Z,14.40
2024-01-20T13:38:39.141Z,14.35
2024-01-20T13:41:06.433Z,16.08
2024-01-20T13:43:34.132Z,13.95
2024-01-20T13:46:01.032Z,13.20
2024-01-20T13:48:27.885Z,11.75
2024-01-20T13:50:54.741Z,12.85
2024-01-20T13:53:21.413Z,14.10
2024-01-20T13:55:48.114Z,14.88
2024-01-20T13:58:14.705Z,14.23
2024-01-20T14:00:42.544Z,14.23
2024-01-20T14:03:10.637Z,13.98
2024-01-20T14:05:37.338Z,13.13
2024-01-20T14:08:04.367Z,10.50
2024-01-20T14:10:30.995Z,12.25
2024-01-20T14:12:59.435Z,11.10
2024-01-20T14:15:26.855Z,10.98
2024-01-20T14:17:53.600Z,14.07
2024-01-20T14:20:20.301Z,12.73
2024-01-20T14:22:46.909Z,13.88
2024-01-20T14:25:15.070Z,14.43
2024-01-20T14:27:41.789Z,13.60
2024-01-20T14:30:09.091Z,14.05
2024-01-20T14:32:35.928Z,13.00
2024-01-20T14:35:02.722Z,13.63
2024-01-20T14:37:29.338Z,13.30
2024-01-20T14:39:55.917Z,14.07
2024-01-20T14:42:22.481Z,13.15
2024-01-20T14:44:49.139Z,13.80
2024-01-20T14:47:15.975Z,12.93
2024-01-20T14:49:43.061Z,13.40
2024-01-20T14:52:10.524Z,12.45
2024-01-20T14:54:38.885Z,14.07
2024-01-20T14:57:05.710Z,13.70
2024-01-20T14:59:32.318Z,12.65
2024-01-20T15:01:58.986Z,14.02
2024-01-20T15:04:25.746Z,14.07
2024-01-20T15:06:52.532Z,14.50
2024-01-20T15:09:19.315Z,13.65
2024-01-20T15:11:45.957Z,13.95
2024-01-20T15:14:13.023Z,13.52
2024-01-20T15:16:39.625Z,13.65
2024-01-20T15:19:07.084Z,13.07
2024-01-20T15:21:34.356Z,12.27
2024-01-20T15:24:01.096Z,13.48
2024-01-20T15:26:27.764Z,13.57
2024-01-20T15:28:54.458Z,14.63
2024-01-20T15:31:21.108Z,13.23
2024-01-20T15:33:47.852Z,13.18
2024-01-20T15:36:15.587Z,14.02
2024-01-20T15:38:42.322Z,14.18
2024-01-20T15:41:10.156Z,13.07
2024-01-20T15:43:36.821Z,13.25
2024-01-20T15:46:03.508Z,13.55
2024-01-20T15:48:30.972Z,13.27
2024-01-20T15:50:57.860Z,12.10
2024-01-20T15:53:24.433Z,12.13
2024-01-20T15:55:51.099Z,12.25
2024-01-20T15:58:17.722Z,12.20
2024-01-20T16:00:47.380Z,11.95
2024-01-20T16:03:14.562Z,12.68
2024-01-20T16:05:41.308Z,12.88
2024-01-20T16:08:08.104Z,13.07
2024-01-20T16:10:35.485Z,13.65
2024-01-20T16:13:02.452Z,13.90
2024-01-20T16:15:29.063Z,13.82
2024-01-20T16:17:56.305Z,13.65
2024-01-20T16:20:23.178Z,13.30
2024-01-20T16:22:49.824Z,13.60
2024-01-20T16:25:16.469Z,13.80
2024-01-20T16:27:44.036Z,13.80
2024-01-20T16:30:10.911Z,13.25
2024-01-20T16:32:37.665Z,14.05
2024-01-20T16:35:05.283Z,13.52
2024-01-20T16:37:31.997Z,14.15
2024-01-20T16:40:02.074Z,13.82
2024-01-20T16:42:29.119Z,13.68
2024-01-20T16:44:56.127Z,14.38
2024-01-20T16:47:25.446Z,15.18
2024-01-20T16:49:52.119Z,14.43
2024-01-20T16:52:18.794Z,13.10
2024-01-20T16:54:45.632Z,15.45
2024-01-20T16:57:13.416Z,13.90
2024-01-20T16:59:39.982Z,14.15
2024-01-20T17:02:07.616Z,14.88
2024-01-20T17:04:34.486Z,14.95
2024-01-20T17:07:01.376Z,13.43
2024-01-20T17:09:27.926Z,13.95
2024-01-20T17:11:55.988Z,14.05
2024-01-20T17:14:24.808Z,37.95
2024-01-20T17:16:51.605Z,40.70
2024-01-20T17:19:21.021Z,48.05
2024-01-20T17:21:50.283Z,28.73
2024-01-20T17:24:17.761Z,51.15
2024-01-20T17:26:45.305Z,30.38
2024-01-20T17:29:11.994Z,18.40
2024-01-20T17:31:39.255Z,16.25
2024-01-20T17:34:06.128Z,15.15
2024-01-20T17:36:33.502Z,14.68
2024-01-20T17:39:01.536Z,14.80
2024-01-20T17:41:29.217Z,14.27
2024-01-20T17:43:55.924Z,13.25
2024-01-20T17:46:22.600Z,13.68
2024-01-20T17:48:49.754Z,13.98
2024-01-20T17:51:16.707Z,14.35
2024-01-20T17:53:44.057Z,18.50
2024-01-20T17:56:10.762Z,15.13
2024-01-20T17:58:37.380Z,14.82
2024-01-20T18:01:06.125Z,14.73
2024-01-20T18:03:34.441Z,15.30
2024-01-20T18:06:01.379Z,13.77
2024-01-20T18:08:28.164Z,14.02
2024-01-20T18:10:55.321Z,14.55
2024-01-20T18:13:23.147Z,13.45
2024-01-20T18:15:49.937Z,14.57
2024-01-20T18:18:19.602Z,13.02
2024-01-20T18:20:46.260Z,14.07
2024-01-20T18:23:13.328Z,13.70
2024-01-20T18:25:39.886Z,12.73
2024-01-20T18:28:07.394Z,13.50
2024-01-20T18:30:35.215Z,13.40
2024-01-20T18:33:02.000Z,16.17
2024-01-20T18:35:29.167Z,15.07
2024-01-20T18:37:55.948Z,14.65
2024-01-20T18:40:22.658Z,13.30
2024-01-20T18:42:50.584Z,13.45
2024-01-20T18:45:17.788Z,13.38
2024-01-20T18:47:46.727Z,13.10
2024-01-20T18:50:19.710Z,14.50
2024-01-20T18:52:46.577Z,12.38
2024-01-20T18:55:13.447Z,13.63
2024-01-20T18:57:40.234Z,12.50
2024-01-20T19:00:07.483Z,13.13
2024-01-20T19:02:36.259Z,12.88
2024-01-20T19:05:03.089Z,13.43
2024-01-20T19:07:29.973Z,12.60
2024-01-20T19:09:56.637Z,12.55
2024-01-20T19:12:23.317Z,13.77
2024-01-20T19:14:51.829Z,13.60
2024-01-20T19:17:18.626Z,12.45
2024-01-20T19:19:45.804Z,13.98
2024-01-20T19:22:13.407Z,13.30
2024-01-20T19:24:40.188Z,13.40
2024-01-20T19:27:07.642Z,13.18
2024-01-20T19:29:35.165Z,13.55
2024-01-20T19:32:01.769Z,13.20
2024-01-20T19:34:28.635Z,13.77
2024-01-20T19:36:55.432Z,13.55
2024-01-20T19:39:22.971Z,13.35
2024-01-20T19:41:49.701Z,13.02
2024-01-20T19:44:16.395Z,13.57
2024-01-20T19:46:43.972Z,13.23
2024-01-20T19:49:11.109Z,12.95
2024-01-20T19:51:42.178Z,13.38
2024-01-20T19:54:14.780Z,13.38
2024-01-20T19:56:45.843Z,13.32
2024-01-20T19:59:17.516Z,14.38
2024-01-20T20:01:49.077Z,12.55
2024-01-20T20:04:17.202Z,13.32
2024-01-20T20:06:46.388Z,12.38
2024-01-20T20:09:17.865Z,13.82
2024-01-20T20:11:45.658Z,13.15
2024-01-20T20:14:13.231Z,13.60
2024-01-20T20:16:41.190Z,12.98
2024-01-20T20:19:08.487Z,13.25
2024-01-20T20:21:35.680Z,12.70
2024-01-20T20:24:02.438Z,12.57
2024-01-20T20:26:29.177Z,14.00
2024-01-20T20:28:55.851Z,13.23
2024-01-20T20:31:23.536Z,13.75
2024-01-20T20:33:51.419Z,13.13
2024-01-20T20:36:20.460Z,13.00
2024-01-20T20:38:47.442Z,14.15
2024-01-20T20:41:14.618Z,12.65
2024-01-20T20:43:41.329Z,13.45
2024-01-20T20:46:08.861Z,13.15
2024-01-20T20:48:35.624Z,14.68
2024-01-20T20:51:02.295Z,13.52
2024-01-20T20:53:28.982Z,14.60
2024-01-20T20:55:55.617Z,14.63
2024-01-20T20:58:22.363Z,14.90
2024-01-20T21:00:49.025Z,14.77
2024-01-20T21:03:15.948Z,14.07
2024-01-20T21:05:44.204Z,14.32
2024-01-20T21:08:10.850Z,14.55
2024-01-20T21:10:37.425Z,14.65
2024-01-20T21:13:04.518Z,13.98
2024-01-20T21:15:31.366Z,14.73
2024-01-20T21:17:58.213Z,13.90
2024-01-20T21:20:24.949Z,14.13
2024-01-20T21:22:51.646Z,13.98
2024-01-20T21:25:19.039Z,13.75
2024-01-20T21:27:46.882Z,14.30
2024-01-20T21:30:14.639Z,13.85
2024-01-20T21:32:41.831Z,13.95
2024-01-20T21:35:09.353Z,15.70
2024-01-20T21:37:36.075Z,14.45
2024-01-20T21:40:02.791Z,14.13
2024-01-20T21:42:29.437Z,15.55
2024-01-20T21:45:00.591Z,14.23
2024-01-20T21:47:30.097Z,14.07
2024-01-20T21:50:04.467Z,14.50
2024-01-20T21:52:31.217Z,13.23
2024-01-20T21:55:00.816Z,13.18
2024-01-20T21:57:27.493Z,13.15
2024-01-20T21:59:54.242Z,12.85
2024-01-20T22:02:20.933Z,12.52
2024-01-20T22:04:47.638Z,12.60
2024-01-20T22:07:14.757Z,13.38
2024-01-20T22:09:41.441Z,13.65
2024-01-20T22:12:08.152Z,13.10
2024-01-20T22:14:35.268Z,12.45
2024-01-20T22:17:02.055Z,14.05
2024-01-20T22:19:28.878Z,12.38
2024-01-20T22:21:55.588Z,12.63
2024-01-20T22:24:22.271Z,13.70
2024-01-20T22:26:49.068Z,11.45
2024-01-20T22:29:24.262Z,12.50
2024-01-20T22:31:57.560Z,12.02
2024-01-20T22:34:30.894Z,10.68
2024-01-20T22:37:00.247Z,11.40
2024-01-20T22:39:30.103Z,11.52
2024-01-20T22:41:56.786Z,11.30
2024-01-20T22:44:23.841Z,11.55
2024-01-20T22:46:51.003Z,10.88
2024-01-20T22:49:17.859Z,10.38
2024-01-20T22:51:45.667Z,10.55
2024-01-20T22:54:18.523Z,10.95
2024-01-20T22:56:45.713Z,10.32
2024-01-20T22:59:12.382Z,10.00
2024-01-20T23:01:40.659Z,10.07
2024-01-20T23:04:07.470Z,9.75
2024-01-20T23:06:34.394Z,9.02
2024-01-20T23:09:03.511Z,8.55
2024-01-20T23:11:30.745Z,8.77
2024-01-20T23:13:57.567Z,9.55
2024-01-20T23:16:24.432Z,8.50
2024-01-20T23:18:51.401Z,9.23
2024-01-20T23:21:18.062Z,8.25
2024-01-20T23:23:45.653Z,8.02
2024-01-20T23:26:15.740Z,7.70
2024-01-20T23:28:45.161Z,8.23
2024-01-20T23:31:12.204Z,8.27
2024-01-20T23:33:39.067Z,7.95
2024-01-20T23:36:07.127Z,7.97
2024-01-20T23:38:34.384Z,7.97
2024-01-20T23:41:01.084Z,8.00
2024-01-20T23:43:27.779Z,6.93
2024-01-20T23:45:54.699Z,7.18
2024-01-20T23:48:21.407Z,7.70
2024-01-20T23:50:49.019Z,6.40
2024-01-20T23:53:15.759Z,6.55
2024-01-20T23:55:43.175Z,7.47
2024-01-20T23:58:10.875Z,7.75
